createdAt,value
2018-06-11T00:01:09.770Z,27.43
2018-06-11T00:06:13.824Z,27.43
2018-06-11T00:11:17.601Z,27.87
2018-06-11T00:16:21.386Z,26.67
2018-06-11T00:21:25.170Z,24.63
2018-06-11T00:26:28.941Z,23.97
2018-06-11T00:31:32.734Z,24.83
2018-06-11T00:36:36.753Z,26.90
2018-06-11T00:41:40.542Z,25.70
2018-06-11T00:46:44.662Z,25.03
2018-06-11T00:51:48.500Z,25.10
2018-06-11T00:56:52.572Z,24.70
2018-06-11T01:01:56.410Z,24.60
2018-06-11T01:07:00.484Z,24.60
2018-06-11T01:12:04.568Z,23.43
2018-06-11T01:17:08.650Z,21.97
2018-06-11T01:22:12.478Z,22.17
2018-06-11T01:27:16.326Z,22.40
2018-06-11T01:32:20.242Z,23.33
2018-06-11T01:37:24.444Z,22.40
2018-06-11T01:42:28.527Z,21.70
2018-06-11T01:47:32.327Z,22.20
2018-06-11T01:52:36.110Z,22.80
2018-06-11T01:57:39.889Z,22.03
2018-06-11T02:02:43.698Z,21.73
2018-06-11T02:07:47.726Z,22.03
2018-06-11T02:12:51.754Z,22.97
2018-06-11T02:17:55.774Z,22.77
2018-06-11T02:22:59.790Z,22.20
2018-06-11T02:28:03.613Z,22.87
2018-06-11T02:33:07.462Z,22.70
2018-06-11T02:38:11.293Z,23.43
2018-06-11T02:43:15.379Z,23.67
2018-06-11T02:48:19.171Z,23.93
2018-06-11T02:53:22.965Z,24.23
2018-06-11T02:58:26.975Z,24.57
2018-06-11T03:03:30.775Z,25.90
2018-06-11T03:08:34.810Z,24.45
2018-06-11T03:13:38.602Z,24.23
2018-06-11T03:18:42.627Z,24.80
2018-06-11T03:23:46.449Z,24.60
2018-06-11T03:28:50.485Z,25.57
2018-06-11T03:33:54.319Z,27.30
2018-06-11T03:38:58.409Z,27.13
2018-06-11T03:44:02.216Z,27.53
2018-06-11T03:49:06.039Z,28.40
2018-06-11T03:54:09.873Z,27.33
2018-06-11T03:59:13.713Z,27.73
2018-06-11T04:04:17.533Z,27.17
2018-06-11T04:09:21.346Z,27.13
2018-06-11T04:14:25.213Z,29.50
2018-06-11T04:19:29.046Z,30.13
2018-06-11T04:24:33.121Z,28.00
2018-06-11T04:29:36.960Z,30.00
2018-06-11T04:34:40.781Z,29.37
2018-06-11T04:39:44.891Z,31.73
2018-06-11T04:44:48.696Z,30.00
2018-06-11T04:49:52.525Z,30.03
2018-06-11T04:54:56.360Z,31.67
2018-06-11T05:00:00.443Z,31.57
2018-06-11T05:05:04.518Z,30.03
2018-06-11T05:10:08.642Z,29.23
2018-06-11T05:15:13.666Z,28.80
2018-06-11T05:20:17.537Z,28.93
2018-06-11T05:25:21.377Z,29.63
2018-06-11T05:30:25.201Z,29.67
2018-06-11T05:35:29.040Z,28.77
2018-06-11T05:40:33.169Z,27.93
2018-06-11T05:45:37.279Z,28.77
2018-06-11T05:50:41.201Z,28.47
2018-06-11T05:55:45.017Z,28.07
2018-06-11T06:00:48.856Z,28.60
2018-06-11T06:05:52.687Z,27.03
2018-06-11T06:10:56.773Z,28.03
2018-06-11T06:16:00.861Z,28.33
2018-06-11T06:21:04.685Z,27.20
2018-06-11T06:26:08.766Z,25.13
2018-06-11T06:31:12.618Z,23.30
2018-06-11T06:36:16.460Z,23.33
2018-06-11T06:41:20.367Z,22.00
2018-06-11T06:46:24.473Z,21.73
2018-06-11T06:51:28.563Z,23.03
2018-06-11T06:56:32.464Z,22.23
2018-06-11T07:01:36.550Z,22.93
2018-06-11T07:06:40.365Z,22.33
2018-06-11T07:11:44.209Z,22.10
2018-06-11T07:16:48.301Z,24.53
2018-06-11T07:21:52.162Z,22.97
2018-06-11T07:26:55.993Z,22.13
2018-06-11T07:31:59.824Z,21.80
2018-06-11T07:37:03.650Z,21.77
2018-06-11T07:42:07.726Z,21.73
2018-06-11T07:47:11.813Z,23.17
2018-06-11T07:52:15.640Z,23.23
2018-06-11T07:57:19.474Z,22.80
2018-06-11T08:02:23.305Z,21.47
2018-06-11T08:07:27.413Z,22.57
2018-06-11T08:12:31.214Z,22.70
2018-06-11T08:17:35.044Z,23.27
2018-06-11T08:22:39.103Z,23.57
2018-06-11T08:27:42.922Z,22.37
2018-06-11T08:32:46.821Z,21.90
2018-06-11T08:37:50.645Z,21.70
2018-06-11T08:42:54.477Z,20.50
2018-06-11T08:47:58.591Z,19.87
2018-06-11T08:53:02.421Z,20.00
2018-06-11T08:58:06.498Z,20.33
2018-06-11T09:03:10.337Z,23.20
2018-06-11T09:08:14.424Z,23.07
2018-06-11T09:13:18.514Z,23.73
2018-06-11T09:18:22.613Z,23.53
2018-06-11T09:23:26.433Z,23.93
2018-06-11T09:28:30.273Z,24.53
2018-06-11T09:33:34.115Z,24.70
2018-06-11T09:38:37.944Z,24.50
2018-06-11T09:43:41.857Z,23.47
2018-06-11T09:48:45.661Z,25.43
2018-06-11T09:53:49.497Z,24.43
2018-06-11T09:58:53.334Z,23.37
2018-06-11T10:03:57.165Z,22.17
2018-06-11T10:09:01.031Z,21.23
2018-06-11T10:14:05.346Z,21.02
2018-06-11T10:19:09.196Z,19.10
2018-06-11T10:24:13.028Z,17.80
2018-06-11T10:29:17.122Z,17.50
2018-06-11T10:34:21.194Z,18.60
2018-06-11T10:39:25.269Z,17.33
2018-06-11T10:44:29.101Z,16.50
2018-06-11T10:49:32.936Z,16.37
2018-06-11T10:54:36.797Z,16.83
2018-06-11T10:59:40.883Z,15.57
2018-06-11T11:04:44.965Z,14.77
2018-06-11T11:09:49.040Z,16.60
2018-06-11T11:14:52.866Z,15.70
2018-06-11T11:19:57.223Z,14.10
2018-06-11T11:25:01.061Z,14.07
2018-06-11T11:30:05.326Z,15.50
2018-06-11T11:35:09.161Z,13.80
2018-06-11T11:40:13.936Z,14.20
2018-06-11T11:45:18.055Z,13.17
2018-06-11T11:50:22.137Z,13.13
2018-06-11T11:55:26.015Z,12.50
2018-06-11T12:00:30.087Z,11.67
2018-06-11T12:05:33.921Z,10.80
2018-06-11T12:10:37.764Z,10.00
2018-06-11T12:15:41.849Z,10.37
2018-06-11T12:20:46.043Z,11.50
2018-06-11T12:25:49.892Z,10.75
2018-06-11T12:30:53.735Z,11.57
2018-06-11T12:35:57.805Z,11.83
2018-06-11T12:41:01.626Z,10.10
2018-06-11T12:46:06.110Z,10.73
2018-06-11T12:51:09.925Z,10.23
2018-06-11T12:56:13.801Z,10.23
2018-06-11T13:01:17.610Z,9.77
2018-06-11T13:06:21.461Z,9.60
2018-06-11T13:11:25.277Z,9.40
2018-06-11T13:16:29.112Z,9.50
2018-06-11T13:21:32.959Z,9.20
2018-06-11T13:26:37.044Z,9.60
2018-06-11T13:31:40.882Z,9.50
2018-06-11T13:36:44.717Z,9.07
2018-06-11T13:41:49.446Z,8.43
2018-06-11T13:46:53.293Z,8.27
2018-06-11T13:51:57.133Z,8.33
2018-06-11T13:57:01.020Z,7.70
2018-06-11T14:02:05.127Z,7.45
2018-06-11T14:07:09.456Z,7.37
2018-06-11T14:12:13.558Z,6.97
2018-06-11T14:17:17.657Z,7.60
2018-06-11T14:22:21.520Z,7.70
2018-06-11T14:27:25.641Z,7.53
2018-06-11T14:32:29.884Z,6.87
2018-06-11T14:37:33.717Z,7.17
2018-06-11T14:42:37.906Z,7.43
2018-06-11T14:47:41.717Z,7.83
2018-06-11T14:52:45.524Z,7.77
2018-06-11T14:57:49.796Z,7.00
2018-06-11T15:02:53.602Z,7.00
2018-06-11T15:07:57.669Z,6.47
2018-06-11T15:13:01.510Z,6.27
2018-06-11T15:18:09.128Z,6.57
2018-06-11T15:23:12.961Z,5.70
2018-06-11T15:28:16.816Z,6.27
2018-06-11T15:33:20.874Z,6.10
2018-06-11T15:38:24.729Z,6.13
2018-06-11T15:43:28.578Z,6.00
2018-06-11T15:48:32.460Z,6.67
2018-06-11T15:53:36.297Z,6.67
2018-06-11T15:58:40.138Z,6.93
2018-06-11T16:03:44.221Z,6.67
2018-06-11T16:08:48.049Z,6.83
2018-06-11T16:13:51.901Z,7.33
2018-06-11T16:18:55.754Z,7.00
2018-06-11T16:23:59.585Z,6.93
2018-06-11T16:29:03.434Z,7.50
2018-06-11T16:34:07.518Z,7.17
2018-06-11T16:39:11.371Z,7.70
2018-06-11T16:44:15.209Z,8.13
2018-06-11T16:49:19.040Z,7.60
2018-06-11T16:54:22.887Z,8.30
2018-06-11T16:59:26.946Z,8.10
2018-06-11T17:04:30.754Z,9.00
2018-06-11T17:09:34.581Z,8.70
2018-06-11T17:14:38.417Z,8.70
2018-06-11T17:19:42.233Z,9.80
2018-06-11T17:24:46.445Z,9.50
2018-06-11T17:29:50.261Z,9.17
2018-06-11T17:34:54.069Z,9.03
2018-06-11T17:39:57.893Z,9.03
2018-06-11T17:45:01.746Z,9.27
2018-06-11T17:50:05.560Z,9.53
2018-06-11T17:55:09.490Z,9.97
2018-06-11T18:00:14.182Z,9.23
2018-06-11T18:05:18.277Z,8.77
2018-06-11T18:10:22.398Z,8.63
2018-06-11T18:15:26.485Z,8.40
2018-06-11T18:20:30.306Z,8.70
2018-06-11T18:25:34.117Z,9.07
2018-06-11T18:30:37.938Z,7.93
2018-06-11T18:35:41.777Z,8.33
2018-06-11T18:40:45.636Z,8.80
2018-06-11T18:45:49.441Z,8.70
2018-06-11T18:50:53.539Z,7.97
2018-06-11T18:55:57.423Z,8.30
2018-06-11T19:01:01.569Z,7.90
2018-06-11T19:06:05.455Z,8.93
2018-06-11T19:11:09.540Z,9.27
2018-06-11T19:16:14.196Z,9.13
2018-06-11T19:21:18.306Z,9.60
2018-06-11T19:26:22.160Z,9.87
2018-06-11T19:31:26.235Z,9.67
2018-06-11T19:36:30.354Z,10.63
2018-06-11T19:41:34.173Z,10.47
2018-06-11T19:46:38.009Z,10.17
2018-06-11T19:51:42.087Z,10.60
2018-06-11T19:56:45.917Z,11.17
2018-06-11T20:01:49.745Z,11.43
2018-06-11T20:06:53.680Z,12.40
2018-06-11T20:11:57.524Z,12.83
2018-06-11T20:17:01.611Z,12.33
2018-06-11T20:22:05.428Z,12.80
2018-06-11T20:27:09.589Z,13.15
2018-06-11T20:32:13.705Z,14.67
2018-06-11T20:37:17.550Z,14.23
2018-06-11T20:42:21.348Z,14.73
2018-06-11T20:47:25.200Z,15.57
2018-06-11T20:52:29.327Z,16.67
2018-06-11T20:57:33.362Z,16.93
2018-06-11T21:02:37.255Z,17.37
2018-06-11T21:07:41.053Z,16.53
2018-06-11T21:12:45.158Z,15.97
2018-06-11T21:17:48.995Z,14.50
2018-06-11T21:22:53.229Z,15.70
2018-06-11T21:27:57.102Z,14.53
2018-06-11T21:33:00.917Z,14.87
2018-06-11T21:38:04.926Z,13.63
2018-06-11T21:43:08.760Z,15.60
2018-06-11T21:48:12.641Z,13.97
2018-06-11T21:53:16.761Z,14.80
2018-06-11T21:58:20.589Z,15.50
2018-06-11T22:03:24.747Z,15.40
2018-06-11T22:08:28.778Z,15.83
2018-06-11T22:13:32.605Z,16.27
2018-06-11T22:18:36.448Z,16.83
2018-06-11T22:23:40.526Z,16.70
2018-06-11T22:28:44.625Z,17.17
2018-06-11T22:33:48.461Z,16.97
2018-06-11T22:38:52.563Z,17.07
2018-06-11T22:43:56.398Z,16.17
2018-06-11T22:49:00.388Z,16.30
2018-06-11T22:54:04.211Z,16.80
2018-06-11T22:59:08.297Z,16.30
2018-06-11T23:04:12.129Z,16.73
2018-06-11T23:09:16.056Z,16.80
2018-06-11T23:14:20.140Z,17.20
2018-06-11T23:19:23.963Z,16.90
2018-06-11T23:24:28.050Z,16.53
2018-06-11T23:29:31.873Z,16.80
2018-06-11T23:34:35.709Z,17.30
2018-06-11T23:39:39.535Z,17.70
2018-06-11T23:44:43.617Z,17.07
2018-06-11T23:49:47.742Z,17.63
2018-06-11T23:54:51.564Z,17.57
2018-06-11T23:59:55.659Z,17.73
